Barre, MA (01005)

8:07 AM EDT on August 31, 2015 (GMT -0400)
KMABARRE2 | | Change Station
CLOSE
Current Station
Personal Weather Station
Location: Barre, MA
Elevation: 620 ft
Nearby Weather Stations

Elev 620 ft 42.38 °N, 72.11 °W | Updated 10 minutes ago

Partly Cloudy
Partly Cloudy
61.0 °F
Feels Like 61.0 °F
N
0.0
Wind Variable Wind from East

Today
High -- | Low -- °F
--% Chance of Precip.
Yesterday
High -- | Low -- °F
Precip. -- in
6:12 AM 7:24 PM
Waning Gibbous, 96% visible
Pressure 30.01 in
Visibility 0.2 miles
Clouds
Dew Point 61 °F
Humidity 99%
Rainfall 0.00 in
Snow Depth Not available.
UV Not available.
Pollen 10.60 out of 12
Air Quality Not available.
Flu Activity Not available.
METAR KORE 311152Z AUTO 00000KT M1/4SM FG VV002 17/17 A3001 RMK AO2 SLP162 T01720167 10178 20167 53004
Pressure 30.01 in
Visibility 0.2 miles
Clouds
Dew Point 61 °F
Humidity 99%
Rainfall 0.00 in
Snow Depth Not available.
UV Not available.
Pollen 10.60 out of 12
Air Quality Not available.
Flu Activity Not available.
METAR KORE 311152Z AUTO 00000KT M1/4SM FG VV002 17/17 A3001 RMK AO2 SLP162 T01720167 10178 20167 53004

10-Day Weather Forecast

×

Almanac

Astronomy

Aug. 31, 2015 Rise Set
Actual Time
Civil Twilight
Nautical Twilight
Astronomical Twilight
Moon
Length of Visible Light
Length of Day
Tomorrow will be .
, % of the Moon is Illuminated

Today's Extremes

State Highs State Lows

Community

WunderPhotos

Upload Photos

1,851,218 photos uploaded!

WunderBlogs® & News

Nearby

Air Quality

  Air Quality AQ Index Pollutant
Not available.

Snow Depth

Station Depth Elevation

Earthquake Activity

City Distance Mag. Time & Date
Minimum magnitude displayed is 2.5.

Coastal Water Temperatures

Place Temperature

Stations

Nearby Weather Stations

Station Location Temp. Windchill Dew Point Humidity Wind Precip. Elev Updated Type